sensor_id;sensor_type;location;lat;lon;timestamp;P1;durP1;ratioP1;P2;durP2;ratioP2
14768;SDS011;7476;49.404;11.152;2022-09-09T00:01:43;3.33;;;2.40;;
14768;SDS011;7476;49.404;11.152;2022-09-09T00:04:20;5.10;;;2.50;;
14768;SDS011;7476;49.404;11.152;2022-09-09T00:06:55;5.83;;;2.47;;
14768;SDS011;7476;49.404;11.152;2022-09-09T00:09:28;3.27;;;2.57;;
14768;SDS011;7476;49.404;11.152;2022-09-09T00:12:00;3.80;;;2.60;;
14768;SDS011;7476;49.404;11.152;2022-09-09T00:14:34;3.57;;;2.33;;
14768;SDS011;7476;49.404;11.152;2022-09-09T00:17:08;4.20;;;2.70;;
14768;SDS011;7476;49.404;11.152;2022-09-09T00:19:41;5.20;;;2.90;;
14768;SDS011;7476;49.404;11.152;2022-09-09T00:22:16;2.80;;;2.17;;
14768;SDS011;7476;49.404;11.152;2022-09-09T00:24:45;3.10;;;2.80;;
14768;SDS011;7476;49.404;11.152;2022-09-09T00:27:16;2.70;;;2.40;;
14768;SDS011;7476;49.404;11.152;2022-09-09T00:29:50;4.50;;;2.60;;
14768;SDS011;7476;49.404;11.152;2022-09-09T00:32:19;2.60;;;2.40;;
14768;SDS011;7476;49.404;11.152;2022-09-09T00:34:49;4.40;;;2.53;;
14768;SDS011;7476;49.404;11.152;2022-09-09T00:37:19;3.17;;;2.17;;
14768;SDS011;7476;49.404;11.152;2022-09-09T00:39:48;3.67;;;2.37;;
14768;SDS011;7476;49.404;11.152;2022-09-09T00:42:20;3.20;;;2.40;;
14768;SDS011;7476;49.404;11.152;2022-09-09T00:44:51;2.23;;;2.03;;
14768;SDS011;7476;49.404;11.152;2022-09-09T00:47:38;4.87;;;2.83;;
14768;SDS011;7476;49.404;11.152;2022-09-09T00:50:14;3.40;;;2.57;;
14768;SDS011;7476;49.404;11.152;2022-09-09T00:52:54;5.27;;;2.70;;
14768;SDS011;7476;49.404;11.152;2022-09-09T00:55:31;5.90;;;2.90;;
14768;SDS011;7476;49.404;11.152;2022-09-09T00:58:06;3.67;;;2.63;;
14768;SDS011;7476;49.404;11.152;2022-09-09T01:00:35;3.67;;;2.57;;
14768;SDS011;7476;49.404;11.152;2022-09-09T01:03:22;3.23;;;2.80;;
14768;SDS011;7476;49.404;11.152;2022-09-09T01:06:10;3.27;;;2.43;;
14768;SDS011;7476;49.404;11.152;2022-09-09T01:08:43;2.83;;;2.60;;
14768;SDS011;7476;49.404;11.152;2022-09-09T01:11:41;5.60;;;2.50;;
14768;SDS011;7476;49.404;11.152;2022-09-09T01:14:18;6.83;;;2.83;;
14768;SDS011;7476;49.404;11.152;2022-09-09T01:16:53;4.53;;;2.60;;
14768;SDS011;7476;49.404;11.152;2022-09-09T01:19:24;3.07;;;2.77;;
14768;SDS011;7476;49.404;11.152;2022-09-09T01:22:09;3.80;;;3.13;;
14768;SDS011;7476;49.404;11.152;2022-09-09T01:24:47;4.17;;;3.00;;
14768;SDS011;7476;49.404;11.152;2022-09-09T01:27:35;3.93;;;3.00;;
14768;SDS011;7476;49.404;11.152;2022-09-09T01:30:04;4.47;;;2.97;;
14768;SDS011;7476;49.404;11.152;2022-09-09T01:32:39;4.97;;;3.27;;
14768;SDS011;7476;49.404;11.152;2022-09-09T01:35:09;3.00;;;2.73;;
14768;SDS011;7476;49.404;11.152;2022-09-09T01:37:46;5.30;;;2.80;;
14768;SDS011;7476;49.404;11.152;2022-09-09T01:40:13;4.77;;;2.77;;
14768;SDS011;7476;49.404;11.152;2022-09-09T01:42:41;5.07;;;2.90;;
14768;SDS011;7476;49.404;11.152;2022-09-09T01:45:08;4.00;;;2.73;;
14768;SDS011;7476;49.404;11.152;2022-09-09T01:47:35;3.40;;;2.90;;
14768;SDS011;7476;49.404;11.152;2022-09-09T01:50:02;5.80;;;3.13;;
14768;SDS011;7476;49.404;11.152;2022-09-09T01:52:30;5.27;;;3.13;;
14768;SDS011;7476;49.404;11.152;2022-09-09T01:54:58;3.73;;;2.80;;
14768;SDS011;7476;49.404;11.152;2022-09-09T01:57:26;5.00;;;3.20;;
14768;SDS011;7476;49.404;11.152;2022-09-09T02:00:03;6.63;;;3.30;;
14768;SDS011;7476;49.404;11.152;2022-09-09T02:02:34;3.33;;;2.70;;
14768;SDS011;7476;49.404;11.152;2022-09-09T02:05:08;5.07;;;2.80;;
14768;SDS011;7476;49.404;11.152;2022-09-09T02:07:42;3.70;;;3.13;;
14768;SDS011;7476;49.404;11.152;2022-09-09T02:10:16;4.00;;;3.07;;
14768;SDS011;7476;49.404;11.152;2022-09-09T02:12:47;4.67;;;3.00;;
14768;SDS011;7476;49.404;11.152;2022-09-09T02:15:20;4.17;;;3.03;;
14768;SDS011;7476;49.404;11.152;2022-09-09T02:18:00;6.30;;;2.77;;
14768;SDS011;7476;49.404;11.152;2022-09-09T02:20:32;4.03;;;2.80;;
14768;SDS011;7476;49.404;11.152;2022-09-09T02:22:59;2.67;;;2.47;;
14768;SDS011;7476;49.404;11.152;2022-09-09T02:25:28;4.43;;;2.90;;
14768;SDS011;7476;49.404;11.152;2022-09-09T02:27:55;4.87;;;2.97;;
14768;SDS011;7476;49.404;11.152;2022-09-09T02:30:25;4.03;;;2.80;;
14768;SDS011;7476;49.404;11.152;2022-09-09T02:32:54;5.43;;;2.87;;
14768;SDS011;7476;49.404;11.152;2022-09-09T02:35:24;4.27;;;3.30;;
14768;SDS011;7476;49.404;11.152;2022-09-09T02:37:53;6.30;;;3.30;;
14768;SDS011;7476;49.404;11.152;2022-09-09T02:40:24;3.60;;;3.00;;
14768;SDS011;7476;49.404;11.152;2022-09-09T02:42:50;3.10;;;2.80;;
14768;SDS011;7476;49.404;11.152;2022-09-09T02:45:20;4.47;;;2.70;;
14768;SDS011;7476;49.404;11.152;2022-09-09T02:47:55;5.33;;;2.97;;
14768;SDS011;7476;49.404;11.152;2022-09-09T02:50:29;5.37;;;2.87;;
14768;SDS011;7476;49.404;11.152;2022-09-09T02:53:02;4.90;;;3.00;;
14768;SDS011;7476;49.404;11.152;2022-09-09T02:55:37;3.27;;;2.67;;
14768;SDS011;7476;49.404;11.152;2022-09-09T02:58:07;4.33;;;2.93;;
14768;SDS011;7476;49.404;11.152;2022-09-09T03:00:36;3.97;;;2.80;;
14768;SDS011;7476;49.404;11.152;2022-09-09T03:03:05;4.70;;;3.00;;
14768;SDS011;7476;49.404;11.152;2022-09-09T03:05:33;4.97;;;3.17;;
14768;SDS011;7476;49.404;11.152;2022-09-09T03:08:01;3.97;;;3.30;;
14768;SDS011;7476;49.404;11.152;2022-09-09T03:10:28;4.33;;;2.90;;
14768;SDS011;7476;49.404;11.152;2022-09-09T03:12:55;7.33;;;2.73;;
14768;SDS011;7476;49.404;11.152;2022-09-09T03:15:22;5.10;;;2.90;;
14768;SDS011;7476;49.404;11.152;2022-09-09T03:17:49;3.33;;;2.80;;
14768;SDS011;7476;49.404;11.152;2022-09-09T03:20:17;5.63;;;2.60;;
14768;SDS011;7476;49.404;11.152;2022-09-09T03:22:44;5.03;;;2.73;;
14768;SDS011;7476;49.404;11.152;2022-09-09T03:25:11;4.50;;;2.80;;
14768;SDS011;7476;49.404;11.152;2022-09-09T03:27:37;3.50;;;2.80;;
14768;SDS011;7476;49.404;11.152;2022-09-09T03:30:05;4.60;;;2.93;;
14768;SDS011;7476;49.404;11.152;2022-09-09T03:32:32;2.93;;;2.73;;
14768;SDS011;7476;49.404;11.152;2022-09-09T03:34:59;8.07;;;3.10;;
14768;SDS011;7476;49.404;11.152;2022-09-09T03:37:27;3.73;;;3.20;;
14768;SDS011;7476;49.404;11.152;2022-09-09T03:39:54;4.20;;;2.83;;
14768;SDS011;7476;49.404;11.152;2022-09-09T03:42:20;4.93;;;2.93;;
14768;SDS011;7476;49.404;11.152;2022-09-09T03:44:47;5.90;;;2.80;;
14768;SDS011;7476;49.404;11.152;2022-09-09T03:47:15;3.90;;;3.10;;
14768;SDS011;7476;49.404;11.152;2022-09-09T03:49:43;4.27;;;3.00;;
14768;SDS011;7476;49.404;11.152;2022-09-09T03:52:10;3.80;;;2.90;;
14768;SDS011;7476;49.404;11.152;2022-09-09T03:54:39;7.10;;;3.53;;
14768;SDS011;7476;49.404;11.152;2022-09-09T03:57:07;5.37;;;3.50;;
14768;SDS011;7476;49.404;11.152;2022-09-09T03:59:34;4.40;;;3.60;;
14768;SDS011;7476;49.404;11.152;2022-09-09T04:02:01;4.93;;;3.53;;
14768;SDS011;7476;49.404;11.152;2022-09-09T04:04:28;4.27;;;3.10;;
14768;SDS011;7476;49.404;11.152;2022-09-09T04:06:55;3.87;;;3.20;;
14768;SDS011;7476;49.404;11.152;2022-09-09T04:09:21;3.53;;;3.13;;
14768;SDS011;7476;49.404;11.152;2022-09-09T04:11:49;5.40;;;3.20;;
14768;SDS011;7476;49.404;11.152;2022-09-09T04:14:16;4.27;;;3.10;;
14768;SDS011;7476;49.404;11.152;2022-09-09T04:16:43;3.73;;;3.43;;
14768;SDS011;7476;49.404;11.152;2022-09-09T04:19:10;6.33;;;3.10;;
14768;SDS011;7476;49.404;11.152;2022-09-09T04:21:38;3.53;;;3.23;;
14768;SDS011;7476;49.404;11.152;2022-09-09T04:24:05;5.20;;;3.10;;
14768;SDS011;7476;49.404;11.152;2022-09-09T04:26:32;3.53;;;3.20;;
14768;SDS011;7476;49.404;11.152;2022-09-09T04:29:01;5.53;;;3.70;;
14768;SDS011;7476;49.404;11.152;2022-09-09T04:31:27;4.53;;;3.60;;
14768;SDS011;7476;49.404;11.152;2022-09-09T04:33:54;6.47;;;3.60;;
14768;SDS011;7476;49.404;11.152;2022-09-09T04:36:21;5.13;;;3.40;;
14768;SDS011;7476;49.404;11.152;2022-09-09T04:38:48;4.67;;;3.47;;
14768;SDS011;7476;49.404;11.152;2022-09-09T04:41:15;4.23;;;3.73;;
14768;SDS011;7476;49.404;11.152;2022-09-09T04:43:42;6.60;;;3.60;;
14768;SDS011;7476;49.404;11.152;2022-09-09T04:46:11;6.27;;;3.20;;
14768;SDS011;7476;49.404;11.152;2022-09-09T04:48:38;3.60;;;3.13;;
14768;SDS011;7476;49.404;11.152;2022-09-09T04:51:05;4.50;;;3.40;;
14768;SDS011;7476;49.404;11.152;2022-09-09T04:53:34;3.33;;;3.00;;
14768;SDS011;7476;49.404;11.152;2022-09-09T04:56:01;4.90;;;3.33;;
14768;SDS011;7476;49.404;11.152;2022-09-09T04:58:29;5.53;;;3.27;;
14768;SDS011;7476;49.404;11.152;2022-09-09T05:01:02;3.80;;;3.00;;
14768;SDS011;7476;49.404;11.152;2022-09-09T05:03:31;3.43;;;3.00;;
14768;SDS011;7476;49.404;11.152;2022-09-09T05:06:01;5.33;;;3.20;;
14768;SDS011;7476;49.404;11.152;2022-09-09T05:08:29;4.53;;;3.33;;
14768;SDS011;7476;49.404;11.152;2022-09-09T05:10:56;4.13;;;3.43;;
14768;SDS011;7476;49.404;11.152;2022-09-09T05:13:24;8.97;;;3.70;;
14768;SDS011;7476;49.404;11.152;2022-09-09T05:15:52;3.73;;;3.10;;
14768;SDS011;7476;49.404;11.152;2022-09-09T05:18:19;7.00;;;3.17;;
14768;SDS011;7476;49.404;11.152;2022-09-09T05:20:48;4.60;;;3.27;;
14768;SDS011;7476;49.404;11.152;2022-09-09T05:23:16;3.67;;;3.30;;
14768;SDS011;7476;49.404;11.152;2022-09-09T05:25:42;4.40;;;3.10;;
14768;SDS011;7476;49.404;11.152;2022-09-09T05:28:11;6.07;;;3.30;;
14768;SDS011;7476;49.404;11.152;2022-09-09T05:30:38;3.77;;;3.33;;
14768;SDS011;7476;49.404;11.152;2022-09-09T05:33:04;5.07;;;3.20;;
14768;SDS011;7476;49.404;11.152;2022-09-09T05:35:32;5.37;;;3.20;;
14768;SDS011;7476;49.404;11.152;2022-09-09T05:38:00;4.90;;;3.17;;
14768;SDS011;7476;49.404;11.152;2022-09-09T05:40:27;4.20;;;2.90;;
14768;SDS011;7476;49.404;11.152;2022-09-09T05:42:54;3.57;;;3.07;;
14768;SDS011;7476;49.404;11.152;2022-09-09T05:45:20;4.60;;;2.70;;
14768;SDS011;7476;49.404;11.152;2022-09-09T05:47:51;3.33;;;2.60;;
14768;SDS011;7476;49.404;11.152;2022-09-09T05:50:18;6.13;;;2.90;;
14768;SDS011;7476;49.404;11.152;2022-09-09T05:52:45;4.13;;;2.70;;
14768;SDS011;7476;49.404;11.152;2022-09-09T05:55:14;4.00;;;2.60;;
14768;SDS011;7476;49.404;11.152;2022-09-09T05:57:42;5.07;;;3.77;;
14768;SDS011;7476;49.404;11.152;2022-09-09T06:00:14;3.40;;;2.57;;
14768;SDS011;7476;49.404;11.152;2022-09-09T06:02:41;4.00;;;2.70;;
14768;SDS011;7476;49.404;11.152;2022-09-09T06:05:08;2.60;;;2.40;;
14768;SDS011;7476;49.404;11.152;2022-09-09T06:07:36;3.37;;;2.47;;
14768;SDS011;7476;49.404;11.152;2022-09-09T06:10:07;7.03;;;2.50;;
14768;SDS011;7476;49.404;11.152;2022-09-09T06:12:35;5.10;;;2.60;;
14768;SDS011;7476;49.404;11.152;2022-09-09T06:15:02;4.10;;;2.50;;
14768;SDS011;7476;49.404;11.152;2022-09-09T06:17:29;4.30;;;2.50;;
14768;SDS011;7476;49.404;11.152;2022-09-09T06:19:56;4.17;;;2.73;;
14768;SDS011;7476;49.404;11.152;2022-09-09T06:22:23;5.63;;;2.90;;
14768;SDS011;7476;49.404;11.152;2022-09-09T06:24:49;3.07;;;2.67;;
14768;SDS011;7476;49.404;11.152;2022-09-09T06:27:16;2.90;;;2.37;;
14768;SDS011;7476;49.404;11.152;2022-09-09T06:29:44;5.43;;;2.97;;
14768;SDS011;7476;49.404;11.152;2022-09-09T06:32:11;4.80;;;2.60;;
14768;SDS011;7476;49.404;11.152;2022-09-09T06:34:37;4.13;;;2.33;;
14768;SDS011;7476;49.404;11.152;2022-09-09T06:37:04;3.07;;;2.23;;
14768;SDS011;7476;49.404;11.152;2022-09-09T06:39:31;2.50;;;2.30;;
14768;SDS011;7476;49.404;11.152;2022-09-09T06:41:58;3.63;;;2.37;;
14768;SDS011;7476;49.404;11.152;2022-09-09T06:44:25;3.23;;;2.23;;
14768;SDS011;7476;49.404;11.152;2022-09-09T06:46:53;2.73;;;2.00;;
14768;SDS011;7476;49.404;11.152;2022-09-09T06:49:19;4.17;;;2.03;;
14768;SDS011;7476;49.404;11.152;2022-09-09T06:51:46;3.73;;;2.00;;
14768;SDS011;7476;49.404;11.152;2022-09-09T06:54:14;2.97;;;2.20;;
14768;SDS011;7476;49.404;11.152;2022-09-09T06:56:41;3.87;;;2.10;;
14768;SDS011;7476;49.404;11.152;2022-09-09T06:59:10;3.53;;;2.00;;
14768;SDS011;7476;49.404;11.152;2022-09-09T07:01:38;2.67;;;2.30;;
14768;SDS011;7476;49.404;11.152;2022-09-09T07:04:07;4.50;;;2.10;;
14768;SDS011;7476;49.404;11.152;2022-09-09T07:06:36;1.97;;;1.67;;
14768;SDS011;7476;49.404;11.152;2022-09-09T07:09:05;3.73;;;1.90;;
14768;SDS011;7476;49.404;11.152;2022-09-09T07:11:34;4.30;;;1.97;;
14768;SDS011;7476;49.404;11.152;2022-09-09T07:14:04;3.67;;;1.83;;
14768;SDS011;7476;49.404;11.152;2022-09-09T07:16:32;2.50;;;2.00;;
14768;SDS011;7476;49.404;11.152;2022-09-09T07:19:02;3.57;;;2.20;;
14768;SDS011;7476;49.404;11.152;2022-09-09T07:21:30;5.43;;;1.97;;
14768;SDS011;7476;49.404;11.152;2022-09-09T07:23:58;1.73;;;1.63;;
14768;SDS011;7476;49.404;11.152;2022-09-09T07:26:27;3.20;;;1.87;;
14768;SDS011;7476;49.404;11.152;2022-09-09T07:28:55;3.87;;;1.90;;
14768;SDS011;7476;49.404;11.152;2022-09-09T07:31:23;3.17;;;1.97;;
14768;SDS011;7476;49.404;11.152;2022-09-09T07:33:51;2.90;;;1.53;;
14768;SDS011;7476;49.404;11.152;2022-09-09T07:36:19;3.20;;;1.80;;
14768;SDS011;7476;49.404;11.152;2022-09-09T07:38:49;2.70;;;1.63;;
14768;SDS011;7476;49.404;11.152;2022-09-09T07:41:18;4.10;;;1.70;;
14768;SDS011;7476;49.404;11.152;2022-09-09T07:43:47;2.17;;;1.47;;
14768;SDS011;7476;49.404;11.152;2022-09-09T07:46:14;6.13;;;2.13;;
14768;SDS011;7476;49.404;11.152;2022-09-09T07:48:43;3.17;;;1.77;;
14768;SDS011;7476;49.404;11.152;2022-09-09T07:51:12;2.23;;;1.60;;
14768;SDS011;7476;49.404;11.152;2022-09-09T07:53:43;4.07;;;1.83;;
14768;SDS011;7476;49.404;11.152;2022-09-09T07:56:12;1.97;;;1.50;;
14768;SDS011;7476;49.404;11.152;2022-09-09T07:58:41;2.77;;;1.60;;
14768;SDS011;7476;49.404;11.152;2022-09-09T08:01:12;2.30;;;1.43;;
14768;SDS011;7476;49.404;11.152;2022-09-09T08:03:40;2.97;;;1.40;;
14768;SDS011;7476;49.404;11.152;2022-09-09T08:06:09;3.63;;;1.57;;
14768;SDS011;7476;49.404;11.152;2022-09-09T08:08:37;3.70;;;1.53;;
14768;SDS011;7476;49.404;11.152;2022-09-09T08:11:07;2.53;;;1.50;;
14768;SDS011;7476;49.404;11.152;2022-09-09T08:13:38;3.47;;;1.30;;
14768;SDS011;7476;49.404;11.152;2022-09-09T08:16:06;3.80;;;1.40;;
14768;SDS011;7476;49.404;11.152;2022-09-09T08:18:34;2.47;;;1.50;;
14768;SDS011;7476;49.404;11.152;2022-09-09T08:21:04;3.10;;;1.47;;
14768;SDS011;7476;49.404;11.152;2022-09-09T08:23:37;2.63;;;1.40;;
14768;SDS011;7476;49.404;11.152;2022-09-09T08:26:05;2.50;;;1.27;;
14768;SDS011;7476;49.404;11.152;2022-09-09T08:28:34;2.50;;;1.43;;
14768;SDS011;7476;49.404;11.152;2022-09-09T08:31:08;2.57;;;1.40;;
14768;SDS011;7476;49.404;11.152;2022-09-09T08:33:37;1.37;;;1.20;;
14768;SDS011;7476;49.404;11.152;2022-09-09T08:36:04;3.23;;;1.30;;
14768;SDS011;7476;49.404;11.152;2022-09-09T08:38:33;2.53;;;1.13;;
14768;SDS011;7476;49.404;11.152;2022-09-09T08:41:04;2.60;;;1.20;;
14768;SDS011;7476;49.404;11.152;2022-09-09T08:43:41;2.07;;;1.30;;
14768;SDS011;7476;49.404;11.152;2022-09-09T08:46:12;2.60;;;1.37;;
14768;SDS011;7476;49.404;11.152;2022-09-09T08:48:50;1.37;;;1.10;;
14768;SDS011;7476;49.404;11.152;2022-09-09T08:51:23;2.67;;;1.40;;
14768;SDS011;7476;49.404;11.152;2022-09-09T08:53:52;2.47;;;1.27;;
14768;SDS011;7476;49.404;11.152;2022-09-09T08:56:21;3.40;;;1.50;;
14768;SDS011;7476;49.404;11.152;2022-09-09T08:58:50;5.23;;;1.30;;
14768;SDS011;7476;49.404;11.152;2022-09-09T09:04:34;4.40;;;1.20;;
14768;SDS011;7476;49.404;11.152;2022-09-09T09:07:11;1.90;;;1.60;;
14768;SDS011;7476;49.404;11.152;2022-09-09T09:09:49;2.43;;;1.40;;
14768;SDS011;7476;49.404;11.152;2022-09-09T09:12:24;4.20;;;1.40;;
14768;SDS011;7476;49.404;11.152;2022-09-09T09:14:54;3.30;;;1.20;;
14768;SDS011;7476;49.404;11.152;2022-09-09T09:17:24;2.57;;;1.20;;
14768;SDS011;7476;49.404;11.152;2022-09-09T09:19:53;3.13;;;1.20;;
14768;SDS011;7476;49.404;11.152;2022-09-09T09:22:20;4.80;;;1.40;;
14768;SDS011;7476;49.404;11.152;2022-09-09T09:24:51;1.87;;;1.10;;
14768;SDS011;7476;49.404;11.152;2022-09-09T09:27:21;2.10;;;1.10;;
14768;SDS011;7476;49.404;11.152;2022-09-09T09:29:56;2.17;;;1.10;;
14768;SDS011;7476;49.404;11.152;2022-09-09T09:32:27;3.40;;;1.30;;
14768;SDS011;7476;49.404;11.152;2022-09-09T09:34:57;3.33;;;1.20;;
14768;SDS011;7476;49.404;11.152;2022-09-09T09:37:30;4.17;;;1.30;;
14768;SDS011;7476;49.404;11.152;2022-09-09T09:40:07;5.23;;;1.10;;
14768;SDS011;7476;49.404;11.152;2022-09-09T09:42:34;2.03;;;1.30;;
14768;SDS011;7476;49.404;11.152;2022-09-09T09:45:07;2.60;;;1.00;;
14768;SDS011;7476;49.404;11.152;2022-09-09T09:47:42;2.03;;;1.30;;
14768;SDS011;7476;49.404;11.152;2022-09-09T09:50:15;4.00;;;1.30;;
14768;SDS011;7476;49.404;11.152;2022-09-09T09:52:51;2.13;;;1.17;;
14768;SDS011;7476;49.404;11.152;2022-09-09T09:55:20;2.53;;;1.20;;
14768;SDS011;7476;49.404;11.152;2022-09-09T09:57:47;2.10;;;1.10;;
14768;SDS011;7476;49.404;11.152;2022-09-09T10:00:15;2.40;;;1.20;;
14768;SDS011;7476;49.404;11.152;2022-09-09T10:02:44;3.17;;;1.27;;
14768;SDS011;7476;49.404;11.152;2022-09-09T10:05:13;2.23;;;1.20;;
14768;SDS011;7476;49.404;11.152;2022-09-09T10:07:41;3.07;;;1.20;;
14768;SDS011;7476;49.404;11.152;2022-09-09T10:10:11;3.07;;;1.30;;
14768;SDS011;7476;49.404;11.152;2022-09-09T10:12:43;1.63;;;1.00;;
14768;SDS011;7476;49.404;11.152;2022-09-09T10:15:25;2.27;;;1.20;;
14768;SDS011;7476;49.404;11.152;2022-09-09T10:18:00;2.00;;;1.00;;
14768;SDS011;7476;49.404;11.152;2022-09-09T10:20:40;2.27;;;1.10;;
14768;SDS011;7476;49.404;11.152;2022-09-09T10:23:15;1.37;;;1.23;;
14768;SDS011;7476;49.404;11.152;2022-09-09T10:25:56;3.63;;;2.10;;
14768;SDS011;7476;49.404;11.152;2022-09-09T10:28:37;1.50;;;1.00;;
14768;SDS011;7476;49.404;11.152;2022-09-09T10:31:22;2.20;;;1.20;;
14768;SDS011;7476;49.404;11.152;2022-09-09T10:33:59;2.70;;;1.00;;
14768;SDS011;7476;49.404;11.152;2022-09-09T10:36:37;1.27;;;0.97;;
14768;SDS011;7476;49.404;11.152;2022-09-09T10:39:12;1.83;;;0.93;;
14768;SDS011;7476;49.404;11.152;2022-09-09T10:41:48;3.07;;;1.07;;
14768;SDS011;7476;49.404;11.152;2022-09-09T10:44:26;2.13;;;1.40;;
14768;SDS011;7476;49.404;11.152;2022-09-09T10:47:12;2.10;;;1.00;;
14768;SDS011;7476;49.404;11.152;2022-09-09T10:49:57;2.43;;;1.37;;
14768;SDS011;7476;49.404;11.152;2022-09-09T10:52:40;3.00;;;1.23;;
14768;SDS011;7476;49.404;11.152;2022-09-09T10:55:15;1.37;;;1.00;;
14768;SDS011;7476;49.404;11.152;2022-09-09T10:57:45;2.17;;;1.17;;
14768;SDS011;7476;49.404;11.152;2022-09-09T11:00:15;2.20;;;1.10;;
14768;SDS011;7476;49.404;11.152;2022-09-09T11:02:45;2.53;;;1.13;;
14768;SDS011;7476;49.404;11.152;2022-09-09T11:05:18;2.20;;;1.10;;
14768;SDS011;7476;49.404;11.152;2022-09-09T11:07:47;2.17;;;1.10;;
14768;SDS011;7476;49.404;11.152;2022-09-09T11:10:19;2.30;;;0.93;;
14768;SDS011;7476;49.404;11.152;2022-09-09T11:12:50;2.13;;;1.17;;
14768;SDS011;7476;49.404;11.152;2022-09-09T11:15:22;1.60;;;1.10;;
14768;SDS011;7476;49.404;11.152;2022-09-09T11:17:56;2.40;;;1.40;;
14768;SDS011;7476;49.404;11.152;2022-09-09T11:20:26;4.43;;;1.20;;
14768;SDS011;7476;49.404;11.152;2022-09-09T11:22:54;3.27;;;1.70;;
14768;SDS011;7476;49.404;11.152;2022-09-09T11:25:25;2.27;;;1.10;;
14768;SDS011;7476;49.404;11.152;2022-09-09T11:28:00;1.73;;;1.17;;
14768;SDS011;7476;49.404;11.152;2022-09-09T11:30:38;3.50;;;1.20;;
14768;SDS011;7476;49.404;11.152;2022-09-09T11:33:18;1.97;;;1.13;;
14768;SDS011;7476;49.404;11.152;2022-09-09T11:36:05;2.40;;;1.20;;
14768;SDS011;7476;49.404;11.152;2022-09-09T11:38:59;2.67;;;1.20;;
14768;SDS011;7476;49.404;11.152;2022-09-09T11:41:34;2.17;;;1.10;;
14768;SDS011;7476;49.404;11.152;2022-09-09T11:44:08;0.97;;;0.83;;
14768;SDS011;7476;49.404;11.152;2022-09-09T11:46:37;2.77;;;1.10;;
14768;SDS011;7476;49.404;11.152;2022-09-09T11:49:06;2.47;;;1.03;;
14768;SDS011;7476;49.404;11.152;2022-09-09T11:51:54;3.03;;;1.37;;
14768;SDS011;7476;49.404;11.152;2022-09-09T11:54:30;2.47;;;1.10;;
14768;SDS011;7476;49.404;11.152;2022-09-09T11:57:04;1.23;;;0.90;;
14768;SDS011;7476;49.404;11.152;2022-09-09T11:59:50;2.03;;;1.10;;
14768;SDS011;7476;49.404;11.152;2022-09-09T12:02:18;1.70;;;1.00;;
14768;SDS011;7476;49.404;11.152;2022-09-09T12:04:50;2.53;;;1.10;;
14768;SDS011;7476;49.404;11.152;2022-09-09T12:07:30;2.00;;;1.30;;
14768;SDS011;7476;49.404;11.152;2022-09-09T12:10:01;2.13;;;1.20;;
14768;SDS011;7476;49.404;11.152;2022-09-09T12:12:32;2.80;;;1.27;;
14768;SDS011;7476;49.404;11.152;2022-09-09T12:15:02;2.43;;;1.10;;
14768;SDS011;7476;49.404;11.152;2022-09-09T12:17:46;2.37;;;1.10;;
14768;SDS011;7476;49.404;11.152;2022-09-09T12:20:15;4.07;;;1.33;;
14768;SDS011;7476;49.404;11.152;2022-09-09T12:22:47;2.77;;;1.33;;
14768;SDS011;7476;49.404;11.152;2022-09-09T12:25:26;3.43;;;1.30;;
14768;SDS011;7476;49.404;11.152;2022-09-09T12:28:02;2.63;;;1.10;;
14768;SDS011;7476;49.404;11.152;2022-09-09T12:30:34;2.13;;;1.00;;
14768;SDS011;7476;49.404;11.152;2022-09-09T12:33:08;2.23;;;1.10;;
14768;SDS011;7476;49.404;11.152;2022-09-09T12:35:37;3.10;;;1.20;;
14768;SDS011;7476;49.404;11.152;2022-09-09T12:38:06;1.37;;;1.10;;
14768;SDS011;7476;49.404;11.152;2022-09-09T12:40:39;1.60;;;1.00;;
14768;SDS011;7476;49.404;11.152;2022-09-09T12:43:16;2.20;;;1.17;;
14768;SDS011;7476;49.404;11.152;2022-09-09T12:45:44;2.60;;;1.23;;
14768;SDS011;7476;49.404;11.152;2022-09-09T12:48:11;2.23;;;1.10;;
14768;SDS011;7476;49.404;11.152;2022-09-09T12:50:43;2.37;;;1.00;;
14768;SDS011;7476;49.404;11.152;2022-09-09T12:53:23;1.77;;;1.10;;
14768;SDS011;7476;49.404;11.152;2022-09-09T12:55:52;1.77;;;1.10;;
14768;SDS011;7476;49.404;11.152;2022-09-09T12:58:22;2.27;;;1.00;;
14768;SDS011;7476;49.404;11.152;2022-09-09T13:00:50;1.43;;;1.07;;
14768;SDS011;7476;49.404;11.152;2022-09-09T13:03:21;3.33;;;1.30;;
14768;SDS011;7476;49.404;11.152;2022-09-09T13:05:48;1.33;;;1.10;;
14768;SDS011;7476;49.404;11.152;2022-09-09T13:08:17;3.17;;;1.37;;
14768;SDS011;7476;49.404;11.152;2022-09-09T13:10:46;2.03;;;0.90;;
14768;SDS011;7476;49.404;11.152;2022-09-09T13:13:19;1.60;;;1.00;;
14768;SDS011;7476;49.404;11.152;2022-09-09T13:15:50;2.33;;;0.90;;
14768;SDS011;7476;49.404;11.152;2022-09-09T13:18:21;1.93;;;1.00;;
14768;SDS011;7476;49.404;11.152;2022-09-09T13:20:49;3.47;;;1.07;;
14768;SDS011;7476;49.404;11.152;2022-09-09T13:23:18;3.53;;;1.03;;
14768;SDS011;7476;49.404;11.152;2022-09-09T13:25:53;4.23;;;1.23;;
14768;SDS011;7476;49.404;11.152;2022-09-09T13:28:21;5.67;;;1.50;;
14768;SDS011;7476;49.404;11.152;2022-09-09T13:30:56;3.50;;;1.50;;
14768;SDS011;7476;49.404;11.152;2022-09-09T13:33:31;3.00;;;1.40;;
14768;SDS011;7476;49.404;11.152;2022-09-09T13:35:59;2.40;;;1.40;;
14768;SDS011;7476;49.404;11.152;2022-09-09T13:38:31;3.23;;;1.40;;
14768;SDS011;7476;49.404;11.152;2022-09-09T13:41:00;2.73;;;1.43;;
14768;SDS011;7476;49.404;11.152;2022-09-09T13:43:30;3.60;;;1.20;;
14768;SDS011;7476;49.404;11.152;2022-09-09T13:46:00;2.43;;;1.40;;
14768;SDS011;7476;49.404;11.152;2022-09-09T13:48:28;2.30;;;1.07;;
14768;SDS011;7476;49.404;11.152;2022-09-09T13:50:56;1.63;;;1.13;;
14768;SDS011;7476;49.404;11.152;2022-09-09T13:53:24;3.70;;;1.30;;
14768;SDS011;7476;49.404;11.152;2022-09-09T13:55:53;1.40;;;1.13;;
14768;SDS011;7476;49.404;11.152;2022-09-09T13:58:20;1.93;;;1.00;;
14768;SDS011;7476;49.404;11.152;2022-09-09T14:00:47;2.23;;;1.13;;
14768;SDS011;7476;49.404;11.152;2022-09-09T14:03:14;1.87;;;1.20;;
14768;SDS011;7476;49.404;11.152;2022-09-09T14:05:41;2.37;;;1.20;;
14768;SDS011;7476;49.404;11.152;2022-09-09T14:08:12;2.20;;;1.30;;
14768;SDS011;7476;49.404;11.152;2022-09-09T14:10:45;3.83;;;1.40;;
14768;SDS011;7476;49.404;11.152;2022-09-09T14:13:12;2.20;;;1.30;;
14768;SDS011;7476;49.404;11.152;2022-09-09T14:15:40;2.97;;;1.50;;
14768;SDS011;7476;49.404;11.152;2022-09-09T14:18:08;2.53;;;1.40;;
14768;SDS011;7476;49.404;11.152;2022-09-09T14:20:37;2.40;;;1.00;;
14768;SDS011;7476;49.404;11.152;2022-09-09T14:23:04;3.83;;;1.30;;
14768;SDS011;7476;49.404;11.152;2022-09-09T14:25:30;3.00;;;1.27;;
14768;SDS011;7476;49.404;11.152;2022-09-09T14:27:58;2.50;;;1.20;;
14768;SDS011;7476;49.404;11.152;2022-09-09T14:30:26;2.53;;;1.13;;
14768;SDS011;7476;49.404;11.152;2022-09-09T14:32:53;3.23;;;1.20;;
14768;SDS011;7476;49.404;11.152;2022-09-09T14:35:19;3.43;;;1.50;;
14768;SDS011;7476;49.404;11.152;2022-09-09T14:37:47;4.13;;;2.50;;
14768;SDS011;7476;49.404;11.152;2022-09-09T14:40:13;4.10;;;1.30;;
14768;SDS011;7476;49.404;11.152;2022-09-09T14:42:41;3.33;;;1.53;;
14768;SDS011;7476;49.404;11.152;2022-09-09T14:45:08;3.80;;;1.47;;
14768;SDS011;7476;49.404;11.152;2022-09-09T14:47:37;2.47;;;1.37;;
14768;SDS011;7476;49.404;11.152;2022-09-09T14:50:04;4.10;;;1.40;;
14768;SDS011;7476;49.404;11.152;2022-09-09T14:52:32;1.57;;;1.30;;
14768;SDS011;7476;49.404;11.152;2022-09-09T14:54:59;3.73;;;1.20;;
14768;SDS011;7476;49.404;11.152;2022-09-09T14:57:26;3.50;;;1.40;;
14768;SDS011;7476;49.404;11.152;2022-09-09T14:59:53;2.57;;;1.50;;
14768;SDS011;7476;49.404;11.152;2022-09-09T15:02:19;3.33;;;1.30;;
14768;SDS011;7476;49.404;11.152;2022-09-09T15:04:47;3.17;;;1.20;;
14768;SDS011;7476;49.404;11.152;2022-09-09T15:07:15;2.63;;;1.37;;
14768;SDS011;7476;49.404;11.152;2022-09-09T15:09:42;3.10;;;1.47;;
14768;SDS011;7476;49.404;11.152;2022-09-09T15:12:08;4.37;;;1.33;;